sensor_id;sensor_type;location;lat;lon;timestamp;pressure;altitude;pressure_sealevel;temperature;humidity
68489;BME280;55481;48.764;8.936;2022-11-03T00:00:56;97440;;;5.5;75
68489;BME280;55481;48.764;8.936;2022-11-03T00:03:26;97440;;;5.5;75.5
68489;BME280;55481;48.764;8.936;2022-11-03T00:05:57;97430;;;5.5;75.5
68489;BME280;55481;48.764;8.936;2022-11-03T00:08:30;97430;;;5.6;75.5
68489;BME280;55481;48.764;8.936;2022-11-03T00:13:30;97420;;;5.8;75
68489;BME280;55481;48.764;8.936;2022-11-03T00:16:01;97420;;;5.7;75
68489;BME280;55481;48.764;8.936;2022-11-03T00:18:32;97420;;;5.8;75
68489;BME280;55481;48.764;8.936;2022-11-03T00:26:17;97410;;;5.7;75
68489;BME280;55481;48.764;8.936;2022-11-03T00:28:40;97410;;;5.7;75
68489;BME280;55481;48.764;8.936;2022-11-03T00:31:11;97410;;;5.7;75.5
68489;BME280;55481;48.764;8.936;2022-11-03T00:33:40;97400;;;5.7;75.5
68489;BME280;55481;48.764;8.936;2022-11-03T00:38:34;97390;;;5.7;75.5
68489;BME280;55481;48.764;8.936;2022-11-03T00:41:05;97390;;;5.6;75.5
68489;BME280;55481;48.764;8.936;2022-11-03T00:43:36;97400;;;5.6;75.5
68489;BME280;55481;48.764;8.936;2022-11-03T00:48:44;97390;;;5.6;75.5
68489;BME280;55481;48.764;8.936;2022-11-03T00:53:57;97400;;;5.6;75.5
68489;BME280;55481;48.764;8.936;2022-11-03T00:56:31;97400;;;5.5;75.5
68489;BME280;55481;48.764;8.936;2022-11-03T00:58:45;97390;;;5.5;75.5
68489;BME280;55481;48.764;8.936;2022-11-03T01:03:51;97390;;;5.4;76
68489;BME280;55481;48.764;8.936;2022-11-03T01:08:45;97390;;;5;76.5
68489;BME280;55481;48.764;8.936;2022-11-03T01:11:17;97380;;;4.9;77
68489;BME280;55481;48.764;8.936;2022-11-03T01:13:45;97380;;;4.8;77
68489;BME280;55481;48.764;8.936;2022-11-03T01:16:15;97380;;;4.8;77
68489;BME280;55481;48.764;8.936;2022-11-03T01:21:09;97370;;;4.8;77
68489;BME280;55481;48.764;8.936;2022-11-03T01:23:41;97360;;;5;76.5
68489;BME280;55481;48.764;8.936;2022-11-03T01:26:12;97360;;;5;76
68489;BME280;55481;48.764;8.936;2022-11-03T01:28:43;97360;;;5;76.5
68489;BME280;55481;48.764;8.936;2022-11-03T01:31:07;97360;;;5.1;76.5
68489;BME280;55481;48.764;8.936;2022-11-03T01:33:37;97350;;;5.1;76
68489;BME280;55481;48.764;8.936;2022-11-03T01:36:07;97340;;;5.1;76
68489;BME280;55481;48.764;8.936;2022-11-03T01:38:38;97340;;;5.1;76
68489;BME280;55481;48.764;8.936;2022-11-03T01:46:14;97340;;;4.9;76
68489;BME280;55481;48.764;8.936;2022-11-03T01:48:43;97340;;;5;76
68489;BME280;55481;48.764;8.936;2022-11-03T01:51:19;97340;;;5;76
68489;BME280;55481;48.764;8.936;2022-11-03T01:53:50;97340;;;4.9;76
68489;BME280;55481;48.764;8.936;2022-11-03T01:56:21;97330;;;4.9;76.5
68489;BME280;55481;48.764;8.936;2022-11-03T01:58:45;97330;;;4.9;76.5
68489;BME280;55481;48.764;8.936;2022-11-03T02:01:16;97330;;;4.9;76
68489;BME280;55481;48.764;8.936;2022-11-03T02:03:48;97320;;;5;76
68489;BME280;55481;48.764;8.936;2022-11-03T02:06:17;97330;;;4.9;76
68489;BME280;55481;48.764;8.936;2022-11-03T02:19:03;97320;;;4.4;77
68489;BME280;55481;48.764;8.936;2022-11-03T02:21:37;97320;;;4.5;76.5
68489;BME280;55481;48.764;8.936;2022-11-03T02:24:00;97310;;;4.6;76.5
68489;BME280;55481;48.764;8.936;2022-11-03T02:26:29;97300;;;4.6;76.5
68489;BME280;55481;48.764;8.936;2022-11-03T02:28:59;97300;;;4.6;76.5
68489;BME280;55481;48.764;8.936;2022-11-03T02:31:33;97290;;;4.6;76.5
68489;BME280;55481;48.764;8.936;2022-11-03T02:34:06;97290;;;4.7;76.5
68489;BME280;55481;48.764;8.936;2022-11-03T02:36:42;97280;;;4.8;76.5
68489;BME280;55481;48.764;8.936;2022-11-03T02:39:14;97280;;;4.8;76
68489;BME280;55481;48.764;8.936;2022-11-03T02:41:35;97270;;;4.8;76
68489;BME280;55481;48.764;8.936;2022-11-03T02:44:07;97270;;;4.8;76
68489;BME280;55481;48.764;8.936;2022-11-03T02:46:36;97270;;;4.8;76
68489;BME280;55481;48.764;8.936;2022-11-03T02:49:07;97260;;;4.9;76
68489;BME280;55481;48.764;8.936;2022-11-03T02:51:38;97260;;;5;76
68489;BME280;55481;48.764;8.936;2022-11-03T02:56:56;97240;;;5;76
68489;BME280;55481;48.764;8.936;2022-11-03T02:59:12;97240;;;5;76
68489;BME280;55481;48.764;8.936;2022-11-03T03:01:44;97230;;;5;76
68489;BME280;55481;48.764;8.936;2022-11-03T03:04:15;97230;;;5;76
68489;BME280;55481;48.764;8.936;2022-11-03T03:06:52;97220;;;5;76
68489;BME280;55481;48.764;8.936;2022-11-03T03:11:46;97220;;;4.9;76
68489;BME280;55481;48.764;8.936;2022-11-03T03:14:17;97220;;;4.9;76
68489;BME280;55481;48.764;8.936;2022-11-03T03:16:53;97230;;;4.9;76
68489;BME280;55481;48.764;8.936;2022-11-03T03:19:25;97220;;;4.8;76
68489;BME280;55481;48.764;8.936;2022-11-03T03:24:30;97210;;;4.7;76.5
68489;BME280;55481;48.764;8.936;2022-11-03T03:29:24;97200;;;4.5;77
68489;BME280;55481;48.764;8.936;2022-11-03T03:31:55;97200;;;4.5;77
68489;BME280;55481;48.764;8.936;2022-11-03T03:34:24;97200;;;4.5;77
68489;BME280;55481;48.764;8.936;2022-11-03T03:37:01;97190;;;4.5;77
68489;BME280;55481;48.764;8.936;2022-11-03T03:42:16;97190;;;4.4;77
68489;BME280;55481;48.764;8.936;2022-11-03T03:44:33;97190;;;4.2;77.5
68489;BME280;55481;48.764;8.936;2022-11-03T03:47:05;97180;;;4.3;77.5
68489;BME280;55481;48.764;8.936;2022-11-03T03:51:57;97170;;;4.5;77
68489;BME280;55481;48.764;8.936;2022-11-03T03:54:28;97160;;;4.7;76.5
68489;BME280;55481;48.764;8.936;2022-11-03T03:57:06;97150;;;4.8;76
68489;BME280;55481;48.764;8.936;2022-11-03T03:59:30;97150;;;4.8;76
68489;BME280;55481;48.764;8.936;2022-11-03T04:02:07;97140;;;4.8;76
68489;BME280;55481;48.764;8.936;2022-11-03T04:04:37;97140;;;4.8;76
68489;BME280;55481;48.764;8.936;2022-11-03T04:09:31;97150;;;4.8;76.5
68489;BME280;55481;48.764;8.936;2022-11-03T04:12:03;97150;;;4.8;76.5
68489;BME280;55481;48.764;8.936;2022-11-03T04:14:33;97150;;;4.8;76.5
68489;BME280;55481;48.764;8.936;2022-11-03T04:16:57;97140;;;4.7;127.5
68489;BME280;55481;48.764;8.936;2022-11-03T04:19:28;97140;;;4.6;77
68489;BME280;55481;48.764;8.936;2022-11-03T04:21:58;97130;;;4.5;77
68489;BME280;55481;48.764;8.936;2022-11-03T04:32:06;97140;;;3.8;78
68489;BME280;55481;48.764;8.936;2022-11-03T04:34:33;97140;;;3.8;78.5
68489;BME280;55481;48.764;8.936;2022-11-03T04:39:47;97120;;;4;77.5
68489;BME280;55481;48.764;8.936;2022-11-03T04:42:18;97120;;;4;77.5
68489;BME280;55481;48.764;8.936;2022-11-03T04:47:11;97120;;;3.9;78
68489;BME280;55481;48.764;8.936;2022-11-03T04:49:42;97120;;;3.8;78
68489;BME280;55481;48.764;8.936;2022-11-03T04:52:13;97120;;;3.7;78
68489;BME280;55481;48.764;8.936;2022-11-03T04:59:38;97110;;;3.8;78
68489;BME280;55481;48.764;8.936;2022-11-03T05:04:52;97100;;;3.7;78
68489;BME280;55481;48.764;8.936;2022-11-03T05:07:25;97100;;;3.7;78
68489;BME280;55481;48.764;8.936;2022-11-03T05:09:46;97100;;;3.9;77.5
68489;BME280;55481;48.764;8.936;2022-11-03T05:12:18;97090;;;3.9;77.5
68489;BME280;55481;48.764;8.936;2022-11-03T05:14:55;97080;;;4;77
68489;BME280;55481;48.764;8.936;2022-11-03T05:19:43;97070;;;4;77.5
68489;BME280;55481;48.764;8.936;2022-11-03T05:22:29;97060;;;4.1;77
68489;BME280;55481;48.764;8.936;2022-11-03T05:27:35;97070;;;4.3;77
68489;BME280;55481;48.764;8.936;2022-11-03T05:30:02;97070;;;4.4;76.5
68489;BME280;55481;48.764;8.936;2022-11-03T05:32:29;97060;;;4.4;76.5
68489;BME280;55481;48.764;8.936;2022-11-03T05:34:58;97050;;;4.4;76.5
68489;BME280;55481;48.764;8.936;2022-11-03T05:37:30;97050;;;4.5;76.5
68489;BME280;55481;48.764;8.936;2022-11-03T05:39:59;97040;;;4.5;76.5
68489;BME280;55481;48.764;8.936;2022-11-03T05:42:37;97050;;;4.5;76.5
68489;BME280;55481;48.764;8.936;2022-11-03T05:44:54;97050;;;4.5;76.5
68489;BME280;55481;48.764;8.936;2022-11-03T05:49:50;97040;;;4.4;77
68489;BME280;55481;48.764;8.936;2022-11-03T05:52:21;97040;;;4.4;76.5
68489;BME280;55481;48.764;8.936;2022-11-03T05:54:51;97040;;;4.5;76.5
68489;BME280;55481;48.764;8.936;2022-11-03T05:57:24;97030;;;4.4;76.5
68489;BME280;55481;48.764;8.936;2022-11-03T05:59:52;97030;;;4.5;76.5
68489;BME280;55481;48.764;8.936;2022-11-03T06:09:57;97010;;;4.5;76.5
68489;BME280;55481;48.764;8.936;2022-11-03T06:17:34;97000;;;4.4;77
68489;BME280;55481;48.764;8.936;2022-11-03T06:20:05;97000;;;4.4;77
68489;BME280;55481;48.764;8.936;2022-11-03T06:22:42;96990;;;4.4;77
68489;BME280;55481;48.764;8.936;2022-11-03T06:25:21;96990;;;4.4;77
68489;BME280;55481;48.764;8.936;2022-11-03T06:30:20;97000;;;4.5;77
68489;BME280;55481;48.764;8.936;2022-11-03T06:32:39;97000;;;4.5;77
68489;BME280;55481;48.764;8.936;2022-11-03T06:35:15;97010;;;4.6;76.5
68489;BME280;55481;48.764;8.936;2022-11-03T06:45:20;97000;;;4.8;76.5
68489;BME280;55481;48.764;8.936;2022-11-03T06:47:49;96990;;;4.9;76.5
68489;BME280;55481;48.764;8.936;2022-11-03T06:50:21;96990;;;4.8;76.5
68489;BME280;55481;48.764;8.936;2022-11-03T06:55:29;96980;;;5;76.5
68489;BME280;55481;48.764;8.936;2022-11-03T06:57:44;96980;;;5;76.5
68489;BME280;55481;48.764;8.936;2022-11-03T07:00:22;96980;;;5.1;76.5
68489;BME280;55481;48.764;8.936;2022-11-03T07:02:55;96970;;;5.2;76.5
68489;BME280;55481;48.764;8.936;2022-11-03T07:10:25;96950;;;5.6;75.5
68489;BME280;55481;48.764;8.936;2022-11-03T07:12:55;96950;;;5.5;76
68489;BME280;55481;48.764;8.936;2022-11-03T07:17:49;96940;;;5.6;75.5
68489;BME280;55481;48.764;8.936;2022-11-03T07:20:19;96950;;;5.7;76
68489;BME280;55481;48.764;8.936;2022-11-03T07:22:51;96940;;;5.8;75.5
68489;BME280;55481;48.764;8.936;2022-11-03T07:30:19;96940;;;5.9;75.5
68489;BME280;55481;48.764;8.936;2022-11-03T07:32:48;96940;;;6;75.5
68489;BME280;55481;48.764;8.936;2022-11-03T07:37:49;96940;;;6.2;75.5
68489;BME280;55481;48.764;8.936;2022-11-03T07:40:21;96920;;;6.3;75.5
68489;BME280;55481;48.764;8.936;2022-11-03T07:42:51;96920;;;6.4;75
68489;BME280;55481;48.764;8.936;2022-11-03T07:45:52;96920;;;6.5;75
68489;BME280;55481;48.764;8.936;2022-11-03T07:47:52;96910;;;6.7;75
68489;BME280;55481;48.764;8.936;2022-11-03T07:50:23;96910;;;6.8;74.5
68489;BME280;55481;48.764;8.936;2022-11-03T08:03:04;96890;;;7.1;74.5
68489;BME280;55481;48.764;8.936;2022-11-03T08:05:34;96880;;;7.2;74.5
68489;BME280;55481;48.764;8.936;2022-11-03T08:10:42;96870;;;7.4;74
68489;BME280;55481;48.764;8.936;2022-11-03T08:13:12;96870;;;7.5;74.5
68489;BME280;55481;48.764;8.936;2022-11-03T08:15:35;96860;;;7.7;74
68489;BME280;55481;48.764;8.936;2022-11-03T08:18:07;96860;;;7.7;74
68489;BME280;55481;48.764;8.936;2022-11-03T08:20:37;96850;;;7.8;74
68489;BME280;55481;48.764;8.936;2022-11-03T08:23:09;96850;;;7.9;74.5
68489;BME280;55481;48.764;8.936;2022-11-03T08:25:46;96850;;;8.1;74
68489;BME280;55481;48.764;8.936;2022-11-03T08:35:50;96830;;;8.6;73.5
68489;BME280;55481;48.764;8.936;2022-11-03T08:38:21;96820;;;8.8;73.5
68489;BME280;55481;48.764;8.936;2022-11-03T08:40:51;96810;;;8.8;73.5
68489;BME280;55481;48.764;8.936;2022-11-03T08:43:21;96810;;;8.9;73.5
68489;BME280;55481;48.764;8.936;2022-11-03T08:45:52;96810;;;9.1;73
68489;BME280;55481;48.764;8.936;2022-11-03T08:50:51;96800;;;9.4;73
68489;BME280;55481;48.764;8.936;2022-11-03T08:53:22;96800;;;9.5;73
68489;BME280;55481;48.764;8.936;2022-11-03T08:55:52;96800;;;9.7;72.5
68489;BME280;55481;48.764;8.936;2022-11-03T08:58:22;96790;;;9.7;73
68489;BME280;55481;48.764;8.936;2022-11-03T09:03:17;96790;;;9.7;73
68489;BME280;55481;48.764;8.936;2022-11-03T09:05:47;96790;;;9.8;73
68489;BME280;55481;48.764;8.936;2022-11-03T09:08:18;96780;;;9.9;73
68489;BME280;55481;48.764;8.936;2022-11-03T09:10:55;96780;;;9.9;73
68489;BME280;55481;48.764;8.936;2022-11-03T09:18:28;96770;;;10.2;73
68489;BME280;55481;48.764;8.936;2022-11-03T09:20:58;96770;;;10.2;73
68489;BME280;55481;48.764;8.936;2022-11-03T09:25:52;96770;;;10.4;72.5
68489;BME280;55481;48.764;8.936;2022-11-03T09:28:23;96770;;;10.4;73
68489;BME280;55481;48.764;8.936;2022-11-03T09:30:54;96770;;;10.4;73
68489;BME280;55481;48.764;8.936;2022-11-03T09:38:21;96760;;;10.5;73
68489;BME280;55481;48.764;8.936;2022-11-03T09:40:51;96750;;;10.4;73.5
68489;BME280;55481;48.764;8.936;2022-11-03T09:43:22;96750;;;10.5;73.5
68489;BME280;55481;48.764;8.936;2022-11-03T09:45:53;96750;;;10.4;73.5
68489;BME280;55481;48.764;8.936;2022-11-03T09:48:23;96740;;;10.5;73.5
68489;BME280;55481;48.764;8.936;2022-11-03T09:53:31;96730;;;10.5;73.5
68489;BME280;55481;48.764;8.936;2022-11-03T09:56:01;96730;;;10.6;73.5
68489;BME280;55481;48.764;8.936;2022-11-03T09:58:33;96730;;;10.8;73.5
68489;BME280;55481;48.764;8.936;2022-11-03T10:08:43;96730;;;11;73
68489;BME280;55481;48.764;8.936;2022-11-03T10:11:12;96730;;;10.9;73.5
68489;BME280;55481;48.764;8.936;2022-11-03T10:13:45;96730;;;11;73.5
68489;BME280;55481;48.764;8.936;2022-11-03T10:16:14;96730;;;10.9;73.5
68489;BME280;55481;48.764;8.936;2022-11-03T10:21:14;96720;;;11.1;73
68489;BME280;55481;48.764;8.936;2022-11-03T10:26:09;96710;;;11;73.5
68489;BME280;55481;48.764;8.936;2022-11-03T10:28:39;96700;;;11;73.5
68489;BME280;55481;48.764;8.936;2022-11-03T10:31:18;96690;;;11.1;73.5
68489;BME280;55481;48.764;8.936;2022-11-03T10:33:57;96680;;;11.3;73.5
68489;BME280;55481;48.764;8.936;2022-11-03T10:36:21;96680;;;11.3;73
68489;BME280;55481;48.764;8.936;2022-11-03T10:38:43;96680;;;11.4;73
68489;BME280;55481;48.764;8.936;2022-11-03T10:41:16;96670;;;11.5;73
68489;BME280;55481;48.764;8.936;2022-11-03T10:44:17;96670;;;11.5;73
68489;BME280;55481;48.764;8.936;2022-11-03T10:46:23;96660;;;11.6;73
68489;BME280;55481;48.764;8.936;2022-11-03T10:53:50;96660;;;11.9;72.5
68489;BME280;55481;48.764;8.936;2022-11-03T10:56:20;96650;;;11.8;73
68489;BME280;55481;48.764;8.936;2022-11-03T10:58:59;96650;;;11.6;73.5
68489;BME280;55481;48.764;8.936;2022-11-03T11:01:22;96640;;;11.7;73.5
68489;BME280;55481;48.764;8.936;2022-11-03T11:04:00;96630;;;11.7;73.5
68489;BME280;55481;48.764;8.936;2022-11-03T11:09:03;96620;;;11.4;74
68489;BME280;55481;48.764;8.936;2022-11-03T11:11:26;96620;;;11.4;74
68489;BME280;55481;48.764;8.936;2022-11-03T11:14:35;96620;;;11.6;73.5
68489;BME280;55481;48.764;8.936;2022-11-03T11:16:50;96610;;;11.7;73.5
68489;BME280;55481;48.764;8.936;2022-11-03T11:24:01;96590;;;12.2;72.5
68489;BME280;55481;48.764;8.936;2022-11-03T11:26:32;96600;;;12.1;72.5
68489;BME280;55481;48.764;8.936;2022-11-03T11:31:41;96580;;;12.3;72.5
68489;BME280;55481;48.764;8.936;2022-11-03T11:36:43;96580;;;12.2;72.5
68489;BME280;55481;48.764;8.936;2022-11-03T11:39:08;96570;;;12.3;72.5
68489;BME280;55481;48.764;8.936;2022-11-03T11:42:10;96570;;;12.3;72.5
68489;BME280;55481;48.764;8.936;2022-11-03T11:44:46;96560;;;12.4;72.5
68489;BME280;55481;48.764;8.936;2022-11-03T11:51:47;96540;;;12.4;73
68489;BME280;55481;48.764;8.936;2022-11-03T11:54:18;96530;;;12.3;73
68489;BME280;55481;48.764;8.936;2022-11-03T11:56:47;96530;;;12.3;73
68489;BME280;55481;48.764;8.936;2022-11-03T12:01:41;96520;;;12.4;72.5
68489;BME280;55481;48.764;8.936;2022-11-03T12:04:14;96520;;;12.6;72.5
68489;BME280;55481;48.764;8.936;2022-11-03T12:06:44;96510;;;12.5;72.5
68489;BME280;55481;48.764;8.936;2022-11-03T12:09:16;96510;;;12.4;72.5
68489;BME280;55481;48.764;8.936;2022-11-03T12:14:34;96500;;;12.5;72.5
68489;BME280;55481;48.764;8.936;2022-11-03T12:19:53;96490;;;12.5;72.5
68489;BME280;55481;48.764;8.936;2022-11-03T12:21:53;96490;;;12.5;72.5
68489;BME280;55481;48.764;8.936;2022-11-03T12:29:17;96460;;;12.5;72.5
68489;BME280;55481;48.764;8.936;2022-11-03T12:31:48;96460;;;12.5;72.5
68489;BME280;55481;48.764;8.936;2022-11-03T12:34:26;96450;;;12.5;72.5
68489;BME280;55481;48.764;8.936;2022-11-03T12:36:57;96450;;;12.5;72.5
68489;BME280;55481;48.764;8.936;2022-11-03T12:41:45;96440;;;12.5;73
68489;BME280;55481;48.764;8.936;2022-11-03T12:44:16;96430;;;12.5;72.5
68489;BME280;55481;48.764;8.936;2022-11-03T12:46:47;96430;;;12.5;72.5
68489;BME280;55481;48.764;8.936;2022-11-03T12:49:17;96420;;;12.5;72.5
68489;BME280;55481;48.764;8.936;2022-11-03T12:51:48;96420;;;12.5;72.5
68489;BME280;55481;48.764;8.936;2022-11-03T12:54:19;96420;;;12.6;72.5
68489;BME280;55481;48.764;8.936;2022-11-03T12:56:49;96420;;;12.6;72.5
68489;BME280;55481;48.764;8.936;2022-11-03T12:59:21;96410;;;12.6;72.5
68489;BME280;55481;48.764;8.936;2022-11-03T13:09:29;96380;;;12.7;72
68489;BME280;55481;48.764;8.936;2022-11-03T13:12:00;96370;;;12.7;72
68489;BME280;55481;48.764;8.936;2022-11-03T13:14:31;96370;;;12.7;72.5
68489;BME280;55481;48.764;8.936;2022-11-03T13:19:38;96360;;;12.7;72.5
68489;BME280;55481;48.764;8.936;2022-11-03T13:22:08;96350;;;12.6;72.5
68489;BME280;55481;48.764;8.936;2022-11-03T13:24:39;96340;;;12.6;72.5
68489;BME280;55481;48.764;8.936;2022-11-03T13:27:03;96350;;;12.7;72.5
68489;BME280;55481;48.764;8.936;2022-11-03T13:29:42;96340;;;12.7;72.5
68489;BME280;55481;48.764;8.936;2022-11-03T13:32:06;96330;;;12.7;72.5
68489;BME280;55481;48.764;8.936;2022-11-03T13:37:20;96310;;;12.8;72.5
68489;BME280;55481;48.764;8.936;2022-11-03T13:39:57;96310;;;12.8;72.5
68489;BME280;55481;48.764;8.936;2022-11-03T13:44:37;96290;;;12.7;72.5
68489;BME280;55481;48.764;8.936;2022-11-03T13:47:08;96280;;;12.7;72.5
68489;BME280;55481;48.764;8.936;2022-11-03T13:49:42;96290;;;12.7;72.5
68489;BME280;55481;48.764;8.936;2022-11-03T13:52:10;96280;;;12.6;72.5
68489;BME280;55481;48.764;8.936;2022-11-03T13:54:43;96280;;;12.6;72.5
68489;BME280;55481;48.764;8.936;2022-11-03T13:57:12;96280;;;12.6;72.5
68489;BME280;55481;48.764;8.936;2022-11-03T14:02:08;96270;;;12.6;72.5
68489;BME280;55481;48.764;8.936;2022-11-03T14:04:37;96260;;;12.6;72.5
68489;BME280;55481;48.764;8.936;2022-11-03T14:07:08;96260;;;12.6;72.5
68489;BME280;55481;48.764;8.936;2022-11-03T14:09:39;96260;;;12.6;72.5
68489;BME280;55481;48.764;8.936;2022-11-03T14:12:10;96250;;;12.7;72.5
68489;BME280;55481;48.764;8.936;2022-11-03T14:14:40;96240;;;12.6;72.5
68489;BME280;55481;48.764;8.936;2022-11-03T14:17:11;96250;;;12.6;72.5
68489;BME280;55481;48.764;8.936;2022-11-03T14:19:43;96250;;;12.7;72.5
68489;BME280;55481;48.764;8.936;2022-11-03T14:22:13;96250;;;12.7;72.5
68489;BME280;55481;48.764;8.936;2022-11-03T14:29:46;96250;;;12.7;72
68489;BME280;55481;48.764;8.936;2022-11-03T14:35:12;96230;;;12.6;72.5
68489;BME280;55481;48.764;8.936;2022-11-03T14:37:30;96230;;;12.6;72.5
68489;BME280;55481;48.764;8.936;2022-11-03T14:40:00;96210;;;12.6;72.5
68489;BME280;55481;48.764;8.936;2022-11-03T14:44:54;96200;;;12.5;72.5
68489;BME280;55481;48.764;8.936;2022-11-03T14:47:25;96190;;;12.5;72.5
68489;BME280;55481;48.764;8.936;2022-11-03T14:49:56;96190;;;12.5;72.5
68489;BME280;55481;48.764;8.936;2022-11-03T14:52:27;96180;;;12.6;72.5
68489;BME280;55481;48.764;8.936;2022-11-03T14:55:04;96170;;;12.5;72.5
68489;BME280;55481;48.764;8.936;2022-11-03T14:57:36;96170;;;12.5;72.5
68489;BME280;55481;48.764;8.936;2022-11-03T15:02:31;96150;;;12.4;72.5
68489;BME280;55481;48.764;8.936;2022-11-03T15:05:02;96150;;;12.3;72.5
68489;BME280;55481;48.764;8.936;2022-11-03T15:07:32;96160;;;12.4;72.5
68489;BME280;55481;48.764;8.936;2022-11-03T15:10:04;96150;;;12.5;72.5
68489;BME280;55481;48.764;8.936;2022-11-03T15:12:34;96160;;;12.5;72
68489;BME280;55481;48.764;8.936;2022-11-03T15:15:13;96150;;;12.4;72.5
68489;BME280;55481;48.764;8.936;2022-11-03T15:27:33;96120;;;12.4;72.5
68489;BME280;55481;48.764;8.936;2022-11-03T15:32:35;96110;;;12.4;72
68489;BME280;55481;48.764;8.936;2022-11-03T15:35:06;96110;;;12.4;72
68489;BME280;55481;48.764;8.936;2022-11-03T15:40:13;96110;;;12.3;72.5
68489;BME280;55481;48.764;8.936;2022-11-03T15:42:44;96100;;;12.3;72.5
68489;BME280;55481;48.764;8.936;2022-11-03T15:45:15;96090;;;12.3;72.5
68489;BME280;55481;48.764;8.936;2022-11-03T15:47:39;96080;;;12.2;72.5
68489;BME280;55481;48.764;8.936;2022-11-03T15:55:12;96060;;;12.1;73
68489;BME280;55481;48.764;8.936;2022-11-03T15:57:43;96050;;;12.1;72.5
68489;BME280;55481;48.764;8.936;2022-11-03T16:00:13;96040;;;12.1;72.5
68489;BME280;55481;48.764;8.936;2022-11-03T16:02:45;96040;;;12.1;73
68489;BME280;55481;48.764;8.936;2022-11-03T16:10:31;96030;;;11.9;73
68489;BME280;55481;48.764;8.936;2022-11-03T16:13:02;96040;;;12;73
68489;BME280;55481;48.764;8.936;2022-11-03T16:15:31;96020;;;12;73
68489;BME280;55481;48.764;8.936;2022-11-03T16:18:02;96030;;;12;72.5
68489;BME280;55481;48.764;8.936;2022-11-03T16:27:53;96010;;;12.1;72.5
68489;BME280;55481;48.764;8.936;2022-11-03T16:30:22;96010;;;12.1;72.5
68489;BME280;55481;48.764;8.936;2022-11-03T16:32:53;96010;;;12.1;72.5
68489;BME280;55481;48.764;8.936;2022-11-03T16:35:24;96000;;;12.1;72.5
68489;BME280;55481;48.764;8.936;2022-11-03T16:37:54;96000;;;12.1;72.5
68489;BME280;55481;48.764;8.936;2022-11-03T16:40:24;96000;;;12.1;72.5
68489;BME280;55481;48.764;8.936;2022-11-03T16:42:56;95990;;;12.1;72.5
68489;BME280;55481;48.764;8.936;2022-11-03T16:48:07;95990;;;12.1;72.5
68489;BME280;55481;48.764;8.936;2022-11-03T16:53:17;95990;;;12;72.5
68489;BME280;55481;48.764;8.936;2022-11-03T16:55:38;96000;;;12;72.5
68489;BME280;55481;48.764;8.936;2022-11-03T16:58:08;96000;;;12;72.5
68489;BME280;55481;48.764;8.936;2022-11-03T17:00:38;96010;;;11.9;72.5
68489;BME280;55481;48.764;8.936;2022-11-03T17:03:05;96010;;;11.9;72.5
68489;BME280;55481;48.764;8.936;2022-11-03T17:05:28;96010;;;11.9;72.5
68489;BME280;55481;48.764;8.936;2022-11-03T17:08:02;96020;;;11.9;72.5
68489;BME280;55481;48.764;8.936;2022-11-03T17:12:59;96020;;;11.9;73
68489;BME280;55481;48.764;8.936;2022-11-03T17:15:30;96010;;;11.9;73
68489;BME280;55481;48.764;8.936;2022-11-03T17:18:00;96010;;;11.9;72.5
68489;BME280;55481;48.764;8.936;2022-11-03T17:20:42;96020;;;11.9;73
68489;BME280;55481;48.764;8.936;2022-11-03T17:23:12;96010;;;12;72.5
68489;BME280;55481;48.764;8.936;2022-11-03T17:25:52;95990;;;12;72.5
68489;BME280;55481;48.764;8.936;2022-11-03T17:28:22;96000;;;11.9;73
68489;BME280;55481;48.764;8.936;2022-11-03T17:33:11;95990;;;11.9;73
68489;BME280;55481;48.764;8.936;2022-11-03T17:35:33;95990;;;11.9;72.5
68489;BME280;55481;48.764;8.936;2022-11-03T17:38:04;95980;;;12;72.5
68489;BME280;55481;48.764;8.936;2022-11-03T17:40:34;96000;;;12;72.5
68489;BME280;55481;48.764;8.936;2022-11-03T17:43:05;96000;;;12;72.5
68489;BME280;55481;48.764;8.936;2022-11-03T17:45:34;96000;;;12;72.5
68489;BME280;55481;48.764;8.936;2022-11-03T17:48:16;95970;;;12;72.5
68489;BME280;55481;48.764;8.936;2022-11-03T17:50:47;95960;;;12;72.5
68489;BME280;55481;48.764;8.936;2022-11-03T17:53:26;95960;;;12;72.5
68489;BME280;55481;48.764;8.936;2022-11-03T17:55:56;95940;;;12;72.5
68489;BME280;55481;48.764;8.936;2022-11-03T17:58:16;95940;;;11.9;73
68489;BME280;55481;48.764;8.936;2022-11-03T18:00:46;95950;;;11.7;73
68489;BME280;55481;48.764;8.936;2022-11-03T18:03:16;95930;;;11.7;73.5
68489;BME280;55481;48.764;8.936;2022-11-03T18:08:08;95930;;;11.5;73.5
68489;BME280;55481;48.764;8.936;2022-11-03T18:10:37;95940;;;11.4;73.5
68489;BME280;55481;48.764;8.936;2022-11-03T18:18:10;95950;;;11.4;73.5
68489;BME280;55481;48.764;8.936;2022-11-03T18:23:11;95960;;;11.4;73.5
68489;BME280;55481;48.764;8.936;2022-11-03T18:28:10;95950;;;11.5;73
68489;BME280;55481;48.764;8.936;2022-11-03T18:35:43;95930;;;11.5;73
68489;BME280;55481;48.764;8.936;2022-11-03T18:38:13;95930;;;11.5;73
68489;BME280;55481;48.764;8.936;2022-11-03T18:40:43;95930;;;11.5;73
68489;BME280;55481;48.764;8.936;2022-11-03T18:43:16;95930;;;11.4;73
68489;BME280;55481;48.764;8.936;2022-11-03T18:45:55;95940;;;11.4;73.5
68489;BME280;55481;48.764;8.936;2022-11-03T18:48:26;95940;;;11.4;73.5
68489;BME280;55481;48.764;8.936;2022-11-03T18:50:56;95940;;;11.4;73
68489;BME280;55481;48.764;8.936;2022-11-03T18:53:25;95930;;;11.4;73
68489;BME280;55481;48.764;8.936;2022-11-03T18:55:56;95920;;;11.5;73
68489;BME280;55481;48.764;8.936;2022-11-03T18:58:26;95910;;;11.6;72.5
68489;BME280;55481;48.764;8.936;2022-11-03T19:03:16;95890;;;11.7;72.5
68489;BME280;55481;48.764;8.936;2022-11-03T19:05:47;95890;;;11.7;72
68489;BME280;55481;48.764;8.936;2022-11-03T19:08:18;95870;;;11.7;72.5
68489;BME280;55481;48.764;8.936;2022-11-03T19:10:47;95880;;;11.7;72.5
68489;BME280;55481;48.764;8.936;2022-11-03T19:13:22;95870;;;11.9;72
68489;BME280;55481;48.764;8.936;2022-11-03T19:21:00;95870;;;11.9;72
68489;BME280;55481;48.764;8.936;2022-11-03T19:23:30;95870;;;11.9;72
68489;BME280;55481;48.764;8.936;2022-11-03T19:26:13;95860;;;11.9;72
68489;BME280;55481;48.764;8.936;2022-11-03T19:33:20;95850;;;11.7;72.5
68489;BME280;55481;48.764;8.936;2022-11-03T19:35:50;95840;;;11.5;72.5
68489;BME280;55481;48.764;8.936;2022-11-03T19:38:21;95840;;;11.5;73
68489;BME280;55481;48.764;8.936;2022-11-03T19:40:52;95840;;;11.3;73
68489;BME280;55481;48.764;8.936;2022-11-03T19:43:22;95840;;;11.3;73
68489;BME280;55481;48.764;8.936;2022-11-03T19:48:34;95820;;;11.1;73.5
68489;BME280;55481;48.764;8.936;2022-11-03T19:56:06;95820;;;11.1;73.5